sensor_id;sensor_type;location;lat;lon;timestamp;P1;durP1;ratioP1;P2;durP2;ratioP2
4585;SDS011;2305;50.118;8.952;2024-01-15T00:01:50;29.47;;;9.57;;
4585;SDS011;2305;50.118;8.952;2024-01-15T00:04:19;19.60;;;9.47;;
4585;SDS011;2305;50.118;8.952;2024-01-15T00:06:48;17.17;;;7.63;;
4585;SDS011;2305;50.118;8.952;2024-01-15T00:09:16;22.43;;;8.70;;
4585;SDS011;2305;50.118;8.952;2024-01-15T00:11:44;14.80;;;7.10;;
4585;SDS011;2305;50.118;8.952;2024-01-15T00:14:13;21.10;;;9.90;;
4585;SDS011;2305;50.118;8.952;2024-01-15T00:16:41;21.80;;;7.27;;
4585;SDS011;2305;50.118;8.952;2024-01-15T00:19:09;21.83;;;7.97;;
4585;SDS011;2305;50.118;8.952;2024-01-15T00:21:41;22.53;;;7.50;;
4585;SDS011;2305;50.118;8.952;2024-01-15T00:24:09;19.10;;;8.20;;
4585;SDS011;2305;50.118;8.952;2024-01-15T00:26:39;25.30;;;8.30;;
4585;SDS011;2305;50.118;8.952;2024-01-15T00:29:07;24.80;;;8.20;;
4585;SDS011;2305;50.118;8.952;2024-01-15T00:31:35;20.50;;;7.90;;
4585;SDS011;2305;50.118;8.952;2024-01-15T00:34:04;20.00;;;7.40;;
4585;SDS011;2305;50.118;8.952;2024-01-15T00:36:32;25.93;;;9.07;;
4585;SDS011;2305;50.118;8.952;2024-01-15T00:39:01;26.70;;;8.73;;
4585;SDS011;2305;50.118;8.952;2024-01-15T00:41:31;20.90;;;8.07;;
4585;SDS011;2305;50.118;8.952;2024-01-15T00:44:00;23.53;;;8.57;;
4585;SDS011;2305;50.118;8.952;2024-01-15T00:46:29;24.57;;;8.37;;
4585;SDS011;2305;50.118;8.952;2024-01-15T00:48:57;21.40;;;6.63;;
4585;SDS011;2305;50.118;8.952;2024-01-15T00:51:26;16.97;;;7.50;;
4585;SDS011;2305;50.118;8.952;2024-01-15T00:53:54;23.67;;;8.30;;
4585;SDS011;2305;50.118;8.952;2024-01-15T00:56:24;19.30;;;8.10;;
4585;SDS011;2305;50.118;8.952;2024-01-15T00:58:54;16.07;;;7.43;;
4585;SDS011;2305;50.118;8.952;2024-01-15T01:01:22;18.60;;;7.40;;
4585;SDS011;2305;50.118;8.952;2024-01-15T01:03:50;18.73;;;7.33;;
4585;SDS011;2305;50.118;8.952;2024-01-15T01:06:19;17.73;;;8.10;;
4585;SDS011;2305;50.118;8.952;2024-01-15T01:08:47;18.00;;;7.97;;
4585;SDS011;2305;50.118;8.952;2024-01-15T01:11:15;19.50;;;7.10;;
4585;SDS011;2305;50.118;8.952;2024-01-15T01:13:47;17.20;;;6.73;;
4585;SDS011;2305;50.118;8.952;2024-01-15T01:16:16;16.23;;;7.97;;
4585;SDS011;2305;50.118;8.952;2024-01-15T01:18:44;17.53;;;8.10;;
4585;SDS011;2305;50.118;8.952;2024-01-15T01:21:15;17.73;;;7.10;;
4585;SDS011;2305;50.118;8.952;2024-01-15T01:23:43;18.77;;;7.50;;
4585;SDS011;2305;50.118;8.952;2024-01-15T01:26:14;18.03;;;7.07;;
4585;SDS011;2305;50.118;8.952;2024-01-15T01:28:44;17.73;;;8.17;;
4585;SDS011;2305;50.118;8.952;2024-01-15T01:31:15;18.20;;;6.50;;
4585;SDS011;2305;50.118;8.952;2024-01-15T01:33:43;20.23;;;7.57;;
4585;SDS011;2305;50.118;8.952;2024-01-15T01:36:13;13.83;;;6.47;;
4585;SDS011;2305;50.118;8.952;2024-01-15T01:38:42;15.63;;;6.70;;
4585;SDS011;2305;50.118;8.952;2024-01-15T01:41:16;19.47;;;8.17;;
4585;SDS011;2305;50.118;8.952;2024-01-15T01:43:44;23.00;;;7.20;;
4585;SDS011;2305;50.118;8.952;2024-01-15T01:46:12;18.00;;;7.23;;
4585;SDS011;2305;50.118;8.952;2024-01-15T01:48:41;16.67;;;7.30;;
4585;SDS011;2305;50.118;8.952;2024-01-15T01:51:09;15.90;;;7.67;;
4585;SDS011;2305;50.118;8.952;2024-01-15T01:53:38;16.07;;;6.30;;
4585;SDS011;2305;50.118;8.952;2024-01-15T01:56:07;17.83;;;6.30;;
4585;SDS011;2305;50.118;8.952;2024-01-15T01:58:35;17.87;;;7.60;;
4585;SDS011;2305;50.118;8.952;2024-01-15T02:01:03;21.60;;;7.97;;
4585;SDS011;2305;50.118;8.952;2024-01-15T02:03:32;19.20;;;7.80;;
4585;SDS011;2305;50.118;8.952;2024-01-15T02:06:06;13.37;;;6.30;;
4585;SDS011;2305;50.118;8.952;2024-01-15T02:08:34;18.10;;;6.83;;
4585;SDS011;2305;50.118;8.952;2024-01-15T02:11:02;27.53;;;7.43;;
4585;SDS011;2305;50.118;8.952;2024-01-15T02:13:33;25.50;;;7.20;;
4585;SDS011;2305;50.118;8.952;2024-01-15T02:16:03;16.43;;;6.40;;
4585;SDS011;2305;50.118;8.952;2024-01-15T02:18:38;21.93;;;7.70;;
4585;SDS011;2305;50.118;8.952;2024-01-15T02:21:11;16.60;;;7.57;;
4585;SDS011;2305;50.118;8.952;2024-01-15T02:23:43;20.27;;;8.37;;
4585;SDS011;2305;50.118;8.952;2024-01-15T02:26:11;23.60;;;7.17;;
4585;SDS011;2305;50.118;8.952;2024-01-15T02:28:40;17.00;;;6.80;;
4585;SDS011;2305;50.118;8.952;2024-01-15T02:31:08;19.20;;;7.37;;
4585;SDS011;2305;50.118;8.952;2024-01-15T02:33:36;15.90;;;6.27;;
4585;SDS011;2305;50.118;8.952;2024-01-15T02:36:05;14.97;;;6.50;;
4585;SDS011;2305;50.118;8.952;2024-01-15T02:38:33;20.87;;;7.23;;
4585;SDS011;2305;50.118;8.952;2024-01-15T02:41:03;21.50;;;7.50;;
4585;SDS011;2305;50.118;8.952;2024-01-15T02:43:31;17.00;;;6.40;;
4585;SDS011;2305;50.118;8.952;2024-01-15T02:45:59;20.37;;;6.70;;
4585;SDS011;2305;50.118;8.952;2024-01-15T02:48:29;17.60;;;6.83;;
4585;SDS011;2305;50.118;8.952;2024-01-15T02:50:58;19.87;;;7.13;;
4585;SDS011;2305;50.118;8.952;2024-01-15T02:53:26;21.93;;;8.03;;
4585;SDS011;2305;50.118;8.952;2024-01-15T02:55:54;20.80;;;6.50;;
4585;SDS011;2305;50.118;8.952;2024-01-15T02:58:23;20.30;;;8.90;;
4585;SDS011;2305;50.118;8.952;2024-01-15T03:00:51;17.57;;;8.13;;
4585;SDS011;2305;50.118;8.952;2024-01-15T03:03:19;17.47;;;7.03;;
4585;SDS011;2305;50.118;8.952;2024-01-15T03:05:47;19.83;;;5.80;;
4585;SDS011;2305;50.118;8.952;2024-01-15T03:08:16;17.47;;;5.90;;
4585;SDS011;2305;50.118;8.952;2024-01-15T03:10:44;18.57;;;6.90;;
4585;SDS011;2305;50.118;8.952;2024-01-15T03:13:12;16.63;;;8.07;;
4585;SDS011;2305;50.118;8.952;2024-01-15T03:15:42;15.40;;;6.10;;
4585;SDS011;2305;50.118;8.952;2024-01-15T03:18:10;15.57;;;7.00;;
4585;SDS011;2305;50.118;8.952;2024-01-15T03:20:39;23.07;;;8.53;;
4585;SDS011;2305;50.118;8.952;2024-01-15T03:23:07;15.10;;;6.47;;
4585;SDS011;2305;50.118;8.952;2024-01-15T03:25:35;13.90;;;6.73;;
4585;SDS011;2305;50.118;8.952;2024-01-15T03:28:04;14.90;;;6.47;;
4585;SDS011;2305;50.118;8.952;2024-01-15T03:30:33;18.17;;;7.53;;
4585;SDS011;2305;50.118;8.952;2024-01-15T03:33:04;18.23;;;8.10;;
4585;SDS011;2305;50.118;8.952;2024-01-15T03:35:32;19.30;;;8.37;;
4585;SDS011;2305;50.118;8.952;2024-01-15T03:38:01;17.03;;;7.13;;
4585;SDS011;2305;50.118;8.952;2024-01-15T03:40:29;15.80;;;7.27;;
4585;SDS011;2305;50.118;8.952;2024-01-15T03:42:57;16.23;;;6.70;;
4585;SDS011;2305;50.118;8.952;2024-01-15T03:45:27;21.33;;;7.00;;
4585;SDS011;2305;50.118;8.952;2024-01-15T03:47:55;16.60;;;6.90;;
4585;SDS011;2305;50.118;8.952;2024-01-15T03:50:27;27.67;;;8.63;;
4585;SDS011;2305;50.118;8.952;2024-01-15T03:52:55;23.33;;;7.20;;
4585;SDS011;2305;50.118;8.952;2024-01-15T03:55:25;16.93;;;6.67;;
4585;SDS011;2305;50.118;8.952;2024-01-15T03:57:53;21.30;;;7.90;;
4585;SDS011;2305;50.118;8.952;2024-01-15T04:00:22;23.53;;;8.57;;
4585;SDS011;2305;50.118;8.952;2024-01-15T04:02:50;27.20;;;7.50;;
4585;SDS011;2305;50.118;8.952;2024-01-15T04:05:18;20.80;;;8.33;;
4585;SDS011;2305;50.118;8.952;2024-01-15T04:07:47;19.10;;;6.80;;
4585;SDS011;2305;50.118;8.952;2024-01-15T04:10:21;15.50;;;6.70;;
4585;SDS011;2305;50.118;8.952;2024-01-15T04:12:53;11.10;;;6.40;;
4585;SDS011;2305;50.118;8.952;2024-01-15T04:15:24;16.63;;;6.33;;
4585;SDS011;2305;50.118;8.952;2024-01-15T04:17:52;16.30;;;6.17;;
4585;SDS011;2305;50.118;8.952;2024-01-15T04:20:20;15.23;;;5.37;;
4585;SDS011;2305;50.118;8.952;2024-01-15T04:22:52;16.37;;;7.50;;
4585;SDS011;2305;50.118;8.952;2024-01-15T04:25:22;14.57;;;6.77;;
4585;SDS011;2305;50.118;8.952;2024-01-15T04:27:50;14.70;;;5.70;;
4585;SDS011;2305;50.118;8.952;2024-01-15T04:30:18;20.93;;;6.67;;
4585;SDS011;2305;50.118;8.952;2024-01-15T04:32:47;19.37;;;7.40;;
4585;SDS011;2305;50.118;8.952;2024-01-15T04:35:15;16.60;;;6.37;;
4585;SDS011;2305;50.118;8.952;2024-01-15T04:37:43;18.73;;;7.13;;
4585;SDS011;2305;50.118;8.952;2024-01-15T04:40:12;15.97;;;7.27;;
4585;SDS011;2305;50.118;8.952;2024-01-15T04:42:41;13.90;;;6.67;;
4585;SDS011;2305;50.118;8.952;2024-01-15T04:45:12;23.70;;;7.50;;
4585;SDS011;2305;50.118;8.952;2024-01-15T04:47:41;20.23;;;6.90;;
4585;SDS011;2305;50.118;8.952;2024-01-15T04:50:10;15.53;;;6.13;;
4585;SDS011;2305;50.118;8.952;2024-01-15T04:52:38;19.50;;;7.23;;
4585;SDS011;2305;50.118;8.952;2024-01-15T04:55:08;17.03;;;7.07;;
4585;SDS011;2305;50.118;8.952;2024-01-15T04:57:37;13.47;;;5.80;;
4585;SDS011;2305;50.118;8.952;2024-01-15T05:00:06;16.70;;;7.63;;
4585;SDS011;2305;50.118;8.952;2024-01-15T05:02:35;15.67;;;6.57;;
4585;SDS011;2305;50.118;8.952;2024-01-15T05:05:03;17.30;;;7.20;;
4585;SDS011;2305;50.118;8.952;2024-01-15T05:07:31;22.50;;;6.90;;
4585;SDS011;2305;50.118;8.952;2024-01-15T05:10:00;15.47;;;5.60;;
4585;SDS011;2305;50.118;8.952;2024-01-15T05:12:28;19.70;;;7.30;;
4585;SDS011;2305;50.118;8.952;2024-01-15T05:14:58;19.13;;;6.70;;
4585;SDS011;2305;50.118;8.952;2024-01-15T05:17:27;16.97;;;7.57;;
4585;SDS011;2305;50.118;8.952;2024-01-15T05:19:55;23.97;;;6.50;;
4585;SDS011;2305;50.118;8.952;2024-01-15T05:22:23;14.23;;;7.20;;
4585;SDS011;2305;50.118;8.952;2024-01-15T05:24:51;17.83;;;6.60;;
4585;SDS011;2305;50.118;8.952;2024-01-15T05:27:21;18.70;;;7.07;;
4585;SDS011;2305;50.118;8.952;2024-01-15T05:29:49;19.27;;;7.70;;
4585;SDS011;2305;50.118;8.952;2024-01-15T05:32:20;13.97;;;5.70;;
4585;SDS011;2305;50.118;8.952;2024-01-15T05:34:47;16.60;;;7.43;;
4585;SDS011;2305;50.118;8.952;2024-01-15T05:37:16;16.67;;;6.93;;
4585;SDS011;2305;50.118;8.952;2024-01-15T05:39:44;13.63;;;6.33;;
4585;SDS011;2305;50.118;8.952;2024-01-15T05:42:12;14.73;;;5.70;;
4585;SDS011;2305;50.118;8.952;2024-01-15T05:44:40;16.50;;;6.07;;
4585;SDS011;2305;50.118;8.952;2024-01-15T05:47:08;17.63;;;6.10;;
4585;SDS011;2305;50.118;8.952;2024-01-15T05:49:38;15.37;;;6.90;;
4585;SDS011;2305;50.118;8.952;2024-01-15T05:52:09;14.53;;;5.63;;
4585;SDS011;2305;50.118;8.952;2024-01-15T05:54:39;11.63;;;5.70;;
4585;SDS011;2305;50.118;8.952;2024-01-15T05:57:10;13.50;;;6.23;;
4585;SDS011;2305;50.118;8.952;2024-01-15T05:59:38;17.50;;;6.27;;
4585;SDS011;2305;50.118;8.952;2024-01-15T06:02:07;20.73;;;7.30;;
4585;SDS011;2305;50.118;8.952;2024-01-15T06:04:35;17.90;;;7.10;;
4585;SDS011;2305;50.118;8.952;2024-01-15T06:07:07;15.97;;;7.23;;
4585;SDS011;2305;50.118;8.952;2024-01-15T06:09:35;16.13;;;6.43;;
4585;SDS011;2305;50.118;8.952;2024-01-15T06:12:03;18.43;;;6.80;;
4585;SDS011;2305;50.118;8.952;2024-01-15T06:14:32;17.47;;;6.90;;
4585;SDS011;2305;50.118;8.952;2024-01-15T06:17:00;11.57;;;5.43;;
4585;SDS011;2305;50.118;8.952;2024-01-15T06:19:28;16.83;;;6.60;;
4585;SDS011;2305;50.118;8.952;2024-01-15T06:22:00;12.40;;;5.93;;
4585;SDS011;2305;50.118;8.952;2024-01-15T06:24:29;17.40;;;6.80;;
4585;SDS011;2305;50.118;8.952;2024-01-15T06:26:58;25.03;;;6.63;;
4585;SDS011;2305;50.118;8.952;2024-01-15T06:29:26;17.03;;;6.77;;
4585;SDS011;2305;50.118;8.952;2024-01-15T06:31:54;14.83;;;6.87;;
4585;SDS011;2305;50.118;8.952;2024-01-15T06:34:22;17.10;;;6.77;;
4585;SDS011;2305;50.118;8.952;2024-01-15T06:36:50;18.73;;;7.00;;
4585;SDS011;2305;50.118;8.952;2024-01-15T06:39:21;18.40;;;6.20;;
4585;SDS011;2305;50.118;8.952;2024-01-15T06:41:51;19.60;;;7.00;;
4585;SDS011;2305;50.118;8.952;2024-01-15T06:44:21;18.23;;;6.80;;
4585;SDS011;2305;50.118;8.952;2024-01-15T06:46:49;17.33;;;7.40;;
4585;SDS011;2305;50.118;8.952;2024-01-15T06:49:18;19.77;;;7.67;;
4585;SDS011;2305;50.118;8.952;2024-01-15T06:51:46;17.97;;;7.07;;
4585;SDS011;2305;50.118;8.952;2024-01-15T06:54:15;14.90;;;7.00;;
4585;SDS011;2305;50.118;8.952;2024-01-15T06:56:43;15.93;;;6.10;;
4585;SDS011;2305;50.118;8.952;2024-01-15T06:59:14;14.63;;;5.97;;
4585;SDS011;2305;50.118;8.952;2024-01-15T07:01:46;12.63;;;5.73;;
4585;SDS011;2305;50.118;8.952;2024-01-15T07:04:15;17.17;;;7.17;;
4585;SDS011;2305;50.118;8.952;2024-01-15T07:06:43;18.30;;;6.47;;
4585;SDS011;2305;50.118;8.952;2024-01-15T07:09:11;19.23;;;5.90;;
4585;SDS011;2305;50.118;8.952;2024-01-15T07:11:43;12.60;;;4.77;;
4585;SDS011;2305;50.118;8.952;2024-01-15T07:14:13;16.20;;;6.60;;
4585;SDS011;2305;50.118;8.952;2024-01-15T07:16:42;22.80;;;7.80;;
4585;SDS011;2305;50.118;8.952;2024-01-15T07:19:14;14.67;;;6.23;;
4585;SDS011;2305;50.118;8.952;2024-01-15T07:21:42;15.27;;;5.90;;
4585;SDS011;2305;50.118;8.952;2024-01-15T07:24:10;16.57;;;6.60;;
4585;SDS011;2305;50.118;8.952;2024-01-15T07:26:39;19.10;;;7.00;;
4585;SDS011;2305;50.118;8.952;2024-01-15T07:29:09;14.63;;;7.13;;
4585;SDS011;2305;50.118;8.952;2024-01-15T07:31:38;9.93;;;5.43;;
4585;SDS011;2305;50.118;8.952;2024-01-15T07:34:06;24.57;;;7.00;;
4585;SDS011;2305;50.118;8.952;2024-01-15T07:36:35;18.40;;;7.17;;
4585;SDS011;2305;50.118;8.952;2024-01-15T07:39:03;12.37;;;6.00;;
4585;SDS011;2305;50.118;8.952;2024-01-15T07:41:31;15.23;;;6.47;;
4585;SDS011;2305;50.118;8.952;2024-01-15T07:43:59;14.53;;;6.70;;
4585;SDS011;2305;50.118;8.952;2024-01-15T07:46:27;14.53;;;7.30;;
4585;SDS011;2305;50.118;8.952;2024-01-15T07:48:57;13.87;;;5.90;;
4585;SDS011;2305;50.118;8.952;2024-01-15T07:51:25;19.23;;;7.17;;
4585;SDS011;2305;50.118;8.952;2024-01-15T07:53:53;20.80;;;6.67;;
4585;SDS011;2305;50.118;8.952;2024-01-15T07:56:22;19.30;;;6.67;;
4585;SDS011;2305;50.118;8.952;2024-01-15T07:58:50;16.63;;;6.93;;
4585;SDS011;2305;50.118;8.952;2024-01-15T08:01:18;17.30;;;6.67;;
4585;SDS011;2305;50.118;8.952;2024-01-15T08:03:46;26.67;;;7.80;;
4585;SDS011;2305;50.118;8.952;2024-01-15T08:06:16;16.50;;;7.70;;
4585;SDS011;2305;50.118;8.952;2024-01-15T08:08:44;18.73;;;6.50;;
4585;SDS011;2305;50.118;8.952;2024-01-15T08:11:12;18.30;;;7.53;;
4585;SDS011;2305;50.118;8.952;2024-01-15T08:13:42;15.60;;;7.00;;
4585;SDS011;2305;50.118;8.952;2024-01-15T08:16:13;15.10;;;7.80;;
4585;SDS011;2305;50.118;8.952;2024-01-15T08:18:41;16.87;;;7.40;;
4585;SDS011;2305;50.118;8.952;2024-01-15T08:21:10;17.40;;;8.47;;
4585;SDS011;2305;50.118;8.952;2024-01-15T08:23:40;18.20;;;7.90;;
4585;SDS011;2305;50.118;8.952;2024-01-15T08:26:08;12.63;;;6.10;;
4585;SDS011;2305;50.118;8.952;2024-01-15T08:28:36;19.20;;;7.70;;
4585;SDS011;2305;50.118;8.952;2024-01-15T08:31:05;17.67;;;7.13;;
4585;SDS011;2305;50.118;8.952;2024-01-15T08:33:33;13.90;;;6.10;;
4585;SDS011;2305;50.118;8.952;2024-01-15T08:36:05;21.07;;;7.80;;
4585;SDS011;2305;50.118;8.952;2024-01-15T08:38:34;13.40;;;6.77;;
4585;SDS011;2305;50.118;8.952;2024-01-15T08:41:03;17.70;;;7.17;;
4585;SDS011;2305;50.118;8.952;2024-01-15T08:43:32;18.63;;;8.27;;
4585;SDS011;2305;50.118;8.952;2024-01-15T08:46:00;16.23;;;7.87;;
4585;SDS011;2305;50.118;8.952;2024-01-15T08:48:28;12.80;;;7.10;;
4585;SDS011;2305;50.118;8.952;2024-01-15T08:50:56;18.47;;;7.27;;
4585;SDS011;2305;50.118;8.952;2024-01-15T08:53:24;16.20;;;6.83;;
4585;SDS011;2305;50.118;8.952;2024-01-15T08:55:53;15.63;;;6.90;;
4585;SDS011;2305;50.118;8.952;2024-01-15T08:58:24;19.13;;;7.40;;
4585;SDS011;2305;50.118;8.952;2024-01-15T09:00:54;17.10;;;7.47;;
4585;SDS011;2305;50.118;8.952;2024-01-15T09:03:23;11.43;;;5.57;;
4585;SDS011;2305;50.118;8.952;2024-01-15T09:05:52;15.63;;;6.93;;
4585;SDS011;2305;50.118;8.952;2024-01-15T09:08:21;18.03;;;6.80;;
4585;SDS011;2305;50.118;8.952;2024-01-15T09:10:49;16.80;;;7.47;;
4585;SDS011;2305;50.118;8.952;2024-01-15T09:13:17;20.40;;;7.70;;
4585;SDS011;2305;50.118;8.952;2024-01-15T09:15:47;17.13;;;7.80;;
4585;SDS011;2305;50.118;8.952;2024-01-15T09:18:15;15.60;;;6.90;;
4585;SDS011;2305;50.118;8.952;2024-01-15T09:20:43;12.93;;;6.20;;
4585;SDS011;2305;50.118;8.952;2024-01-15T09:23:12;17.37;;;7.53;;
4585;SDS011;2305;50.118;8.952;2024-01-15T09:25:40;21.10;;;8.97;;
4585;SDS011;2305;50.118;8.952;2024-01-15T09:28:08;25.13;;;7.20;;
4585;SDS011;2305;50.118;8.952;2024-01-15T09:30:36;18.57;;;7.30;;
4585;SDS011;2305;50.118;8.952;2024-01-15T09:33:06;15.70;;;7.30;;
4585;SDS011;2305;50.118;8.952;2024-01-15T09:35:34;16.87;;;6.73;;
4585;SDS011;2305;50.118;8.952;2024-01-15T09:38:03;12.53;;;6.63;;
4585;SDS011;2305;50.118;8.952;2024-01-15T09:40:32;18.00;;;7.17;;
4585;SDS011;2305;50.118;8.952;2024-01-15T09:43:05;18.00;;;7.27;;
4585;SDS011;2305;50.118;8.952;2024-01-15T09:45:34;19.27;;;7.80;;
4585;SDS011;2305;50.118;8.952;2024-01-15T09:48:02;20.00;;;7.50;;
4585;SDS011;2305;50.118;8.952;2024-01-15T09:50:35;19.20;;;7.27;;
4585;SDS011;2305;50.118;8.952;2024-01-15T09:53:03;17.20;;;7.00;;
4585;SDS011;2305;50.118;8.952;2024-01-15T09:55:33;12.87;;;5.33;;
4585;SDS011;2305;50.118;8.952;2024-01-15T09:58:04;15.20;;;7.20;;
4585;SDS011;2305;50.118;8.952;2024-01-15T10:00:34;12.53;;;6.00;;
4585;SDS011;2305;50.118;8.952;2024-01-15T10:03:06;15.13;;;6.27;;
4585;SDS011;2305;50.118;8.952;2024-01-15T10:05:38;18.57;;;8.17;;
4585;SDS011;2305;50.118;8.952;2024-01-15T10:08:09;14.07;;;6.80;;
4585;SDS011;2305;50.118;8.952;2024-01-15T10:10:43;18.27;;;6.97;;
4585;SDS011;2305;50.118;8.952;2024-01-15T10:13:11;15.50;;;7.67;;
4585;SDS011;2305;50.118;8.952;2024-01-15T10:15:41;14.97;;;7.60;;
4585;SDS011;2305;50.118;8.952;2024-01-15T10:18:13;17.77;;;7.50;;
4585;SDS011;2305;50.118;8.952;2024-01-15T10:20:43;18.07;;;6.80;;
4585;SDS011;2305;50.118;8.952;2024-01-15T10:23:10;14.80;;;7.00;;
4585;SDS011;2305;50.118;8.952;2024-01-15T10:25:38;14.00;;;6.00;;
4585;SDS011;2305;50.118;8.952;2024-01-15T10:28:09;19.07;;;6.80;;
4585;SDS011;2305;50.118;8.952;2024-01-15T10:30:37;30.60;;;7.63;;
4585;SDS011;2305;50.118;8.952;2024-01-15T10:33:05;13.30;;;5.83;;
4585;SDS011;2305;50.118;8.952;2024-01-15T10:35:34;15.47;;;6.77;;
4585;SDS011;2305;50.118;8.952;2024-01-15T10:38:04;10.83;;;6.00;;
4585;SDS011;2305;50.118;8.952;2024-01-15T10:40:33;13.47;;;7.07;;
4585;SDS011;2305;50.118;8.952;2024-01-15T10:43:02;13.00;;;6.83;;
4585;SDS011;2305;50.118;8.952;2024-01-15T10:45:30;14.00;;;6.20;;
4585;SDS011;2305;50.118;8.952;2024-01-15T10:47:58;16.10;;;6.90;;
4585;SDS011;2305;50.118;8.952;2024-01-15T10:50:29;14.50;;;6.20;;
4585;SDS011;2305;50.118;8.952;2024-01-15T10:53:00;13.70;;;6.17;;
4585;SDS011;2305;50.118;8.952;2024-01-15T10:55:32;13.30;;;6.83;;
4585;SDS011;2305;50.118;8.952;2024-01-15T10:58:02;14.93;;;6.20;;
4585;SDS011;2305;50.118;8.952;2024-01-15T11:00:36;14.67;;;6.10;;
4585;SDS011;2305;50.118;8.952;2024-01-15T11:03:06;16.80;;;7.27;;
4585;SDS011;2305;50.118;8.952;2024-01-15T11:05:36;15.30;;;6.90;;
4585;SDS011;2305;50.118;8.952;2024-01-15T11:08:05;13.70;;;6.73;;
4585;SDS011;2305;50.118;8.952;2024-01-15T11:10:39;13.80;;;6.70;;
4585;SDS011;2305;50.118;8.952;2024-01-15T11:13:09;17.90;;;6.90;;
4585;SDS011;2305;50.118;8.952;2024-01-15T11:15:59;14.90;;;7.47;;
4585;SDS011;2305;50.118;8.952;2024-01-15T11:18:30;11.70;;;6.23;;
4585;SDS011;2305;50.118;8.952;2024-01-15T11:23:53;12.23;;;5.87;;
4585;SDS011;2305;50.118;8.952;2024-01-15T11:26:28;14.80;;;6.73;;
4585;SDS011;2305;50.118;8.952;2024-01-15T11:29:04;12.73;;;6.20;;
4585;SDS011;2305;50.118;8.952;2024-01-15T11:37:27;12.80;;;6.93;;
4585;SDS011;2305;50.118;8.952;2024-01-15T11:40:00;15.00;;;6.00;;
4585;SDS011;2305;50.118;8.952;2024-01-15T11:42:31;10.87;;;5.47;;
4585;SDS011;2305;50.118;8.952;2024-01-15T11:45:00;11.50;;;5.50;;
4585;SDS011;2305;50.118;8.952;2024-01-15T11:47:41;13.67;;;6.67;;
4585;SDS011;2305;50.118;8.952;2024-01-15T11:50:27;9.67;;;5.97;;
4585;SDS011;2305;50.118;8.952;2024-01-15T11:52:59;11.57;;;5.30;;
4585;SDS011;2305;50.118;8.952;2024-01-15T11:55:33;10.80;;;5.77;;
4585;SDS011;2305;50.118;8.952;2024-01-15T11:58:09;11.40;;;5.80;;
4585;SDS011;2305;50.118;8.952;2024-01-15T12:00:42;12.23;;;4.50;;
4585;SDS011;2305;50.118;8.952;2024-01-15T12:03:12;11.57;;;5.53;;
4585;SDS011;2305;50.118;8.952;2024-01-15T12:05:40;9.70;;;6.27;;
4585;SDS011;2305;50.118;8.952;2024-01-15T12:08:09;9.40;;;5.13;;
4585;SDS011;2305;50.118;8.952;2024-01-15T12:10:38;12.33;;;5.80;;
4585;SDS011;2305;50.118;8.952;2024-01-15T12:13:13;9.43;;;5.73;;
4585;SDS011;2305;50.118;8.952;2024-01-15T12:15:42;12.70;;;6.17;;
4585;SDS011;2305;50.118;8.952;2024-01-15T12:18:13;9.27;;;5.20;;
4585;SDS011;2305;50.118;8.952;2024-01-15T12:20:45;12.80;;;5.40;;
4585;SDS011;2305;50.118;8.952;2024-01-15T12:23:14;13.07;;;6.07;;
4585;SDS011;2305;50.118;8.952;2024-01-15T12:25:43;10.70;;;5.20;;
4585;SDS011;2305;50.118;8.952;2024-01-15T12:28:13;13.23;;;5.63;;
4585;SDS011;2305;50.118;8.952;2024-01-15T12:30:42;9.87;;;5.17;;
4585;SDS011;2305;50.118;8.952;2024-01-15T12:33:18;12.63;;;5.50;;
4585;SDS011;2305;50.118;8.952;2024-01-15T12:35:47;10.30;;;5.13;;
4585;SDS011;2305;50.118;8.952;2024-01-15T12:38:18;10.73;;;5.43;;
4585;SDS011;2305;50.118;8.952;2024-01-15T12:40:48;9.90;;;5.90;;
4585;SDS011;2305;50.118;8.952;2024-01-15T12:43:18;10.33;;;4.83;;
4585;SDS011;2305;50.118;8.952;2024-01-15T12:45:46;9.07;;;4.93;;
4585;SDS011;2305;50.118;8.952;2024-01-15T12:48:17;7.80;;;4.50;;
4585;SDS011;2305;50.118;8.952;2024-01-15T12:50:46;8.60;;;5.07;;
4585;SDS011;2305;50.118;8.952;2024-01-15T12:53:15;7.87;;;4.43;;
4585;SDS011;2305;50.118;8.952;2024-01-15T12:55:44;10.10;;;5.07;;
4585;SDS011;2305;50.118;8.952;2024-01-15T12:58:12;10.00;;;4.97;;
4585;SDS011;2305;50.118;8.952;2024-01-15T13:00:41;8.60;;;5.40;;
4585;SDS011;2305;50.118;8.952;2024-01-15T13:03:10;11.27;;;5.60;;
4585;SDS011;2305;50.118;8.952;2024-01-15T13:05:38;8.20;;;4.50;;
4585;SDS011;2305;50.118;8.952;2024-01-15T13:08:10;7.80;;;4.67;;
4585;SDS011;2305;50.118;8.952;2024-01-15T13:10:38;9.30;;;5.00;;
4585;SDS011;2305;50.118;8.952;2024-01-15T13:13:08;9.17;;;4.73;;
4585;SDS011;2305;50.118;8.952;2024-01-15T13:15:36;9.53;;;5.33;;
4585;SDS011;2305;50.118;8.952;2024-01-15T13:18:06;10.53;;;5.40;;
4585;SDS011;2305;50.118;8.952;2024-01-15T13:20:38;10.70;;;5.00;;
4585;SDS011;2305;50.118;8.952;2024-01-15T13:23:08;10.20;;;5.57;;
4585;SDS011;2305;50.118;8.952;2024-01-15T13:25:36;8.57;;;5.03;;
4585;SDS011;2305;50.118;8.952;2024-01-15T13:28:06;9.70;;;4.53;;
4585;SDS011;2305;50.118;8.952;2024-01-15T13:30:35;10.07;;;5.10;;
4585;SDS011;2305;50.118;8.952;2024-01-15T13:36:04;9.80;;;5.60;;
4585;SDS011;2305;50.118;8.952;2024-01-15T13:38:38;11.13;;;5.20;;
4585;SDS011;2305;50.118;8.952;2024-01-15T13:41:09;9.70;;;4.90;;
4585;SDS011;2305;50.118;8.952;2024-01-15T13:43:38;9.27;;;5.30;;
4585;SDS011;2305;50.118;8.952;2024-01-15T13:46:10;7.87;;;4.63;;
4585;SDS011;2305;50.118;8.952;2024-01-15T13:48:39;7.73;;;4.53;;
4585;SDS011;2305;50.118;8.952;2024-01-15T13:51:07;9.17;;;4.97;;
4585;SDS011;2305;50.118;8.952;2024-01-15T13:53:36;8.03;;;5.00;;
4585;SDS011;2305;50.118;8.952;2024-01-15T13:56:08;7.00;;;4.23;;
4585;SDS011;2305;50.118;8.952;2024-01-15T13:58:37;8.17;;;3.80;;
4585;SDS011;2305;50.118;8.952;2024-01-15T14:01:09;10.57;;;4.67;;
4585;SDS011;2305;50.118;8.952;2024-01-15T14:03:41;7.20;;;4.93;;
4585;SDS011;2305;50.118;8.952;2024-01-15T14:06:09;9.27;;;5.00;;
4585;SDS011;2305;50.118;8.952;2024-01-15T14:08:37;8.53;;;3.70;;
4585;SDS011;2305;50.118;8.952;2024-01-15T14:11:05;7.57;;;3.93;;
4585;SDS011;2305;50.118;8.952;2024-01-15T14:13:33;8.10;;;4.70;;
4585;SDS011;2305;50.118;8.952;2024-01-15T14:16:04;5.80;;;3.80;;
4585;SDS011;2305;50.118;8.952;2024-01-15T14:18:33;11.20;;;4.30;;
4585;SDS011;2305;50.118;8.952;2024-01-15T14:21:03;8.90;;;4.67;;
4585;SDS011;2305;50.118;8.952;2024-01-15T14:23:31;6.03;;;3.67;;
4585;SDS011;2305;50.118;8.952;2024-01-15T14:26:03;7.10;;;4.07;;
4585;SDS011;2305;50.118;8.952;2024-01-15T14:28:31;8.00;;;3.33;;
4585;SDS011;2305;50.118;8.952;2024-01-15T14:30:59;7.17;;;3.70;;
4585;SDS011;2305;50.118;8.952;2024-01-15T14:33:29;6.13;;;2.93;;
4585;SDS011;2305;50.118;8.952;2024-01-15T14:36:05;8.63;;;3.50;;
4585;SDS011;2305;50.118;8.952;2024-01-15T14:38:34;11.07;;;3.27;;
4585;SDS011;2305;50.118;8.952;2024-01-15T14:41:02;5.17;;;3.23;;
4585;SDS011;2305;50.118;8.952;2024-01-15T14:43:35;4.80;;;2.90;;
4585;SDS011;2305;50.118;8.952;2024-01-15T14:46:05;7.30;;;3.33;;
4585;SDS011;2305;50.118;8.952;2024-01-15T14:48:35;8.47;;;3.27;;
4585;SDS011;2305;50.118;8.952;2024-01-15T14:51:04;4.97;;;3.67;;
4585;SDS011;2305;50.118;8.952;2024-01-15T14:53:33;7.30;;;3.50;;
4585;SDS011;2305;50.118;8.952;2024-01-15T14:56:03;5.03;;;3.17;;
4585;SDS011;2305;50.118;8.952;2024-01-15T14:58:32;4.77;;;2.50;;
4585;SDS011;2305;50.118;8.952;2024-01-15T15:01:00;5.93;;;2.77;;
4585;SDS011;2305;50.118;8.952;2024-01-15T15:03:28;6.40;;;2.67;;
4585;SDS011;2305;50.118;8.952;2024-01-15T15:05:57;4.47;;;2.53;;
4585;SDS011;2305;50.118;8.952;2024-01-15T15:08:26;6.03;;;2.60;;
4585;SDS011;2305;50.118;8.952;2024-01-15T15:10:55;8.67;;;3.10;;
4585;SDS011;2305;50.118;8.952;2024-01-15T15:13:24;5.23;;;2.60;;
4585;SDS011;2305;50.118;8.952;2024-01-15T15:16:10;5.67;;;3.10;;
4585;SDS011;2305;50.118;8.952;2024-01-15T15:18:42;7.53;;;2.90;;
4585;SDS011;2305;50.118;8.952;2024-01-15T15:21:13;5.40;;;2.40;;
4585;SDS011;2305;50.118;8.952;2024-01-15T15:23:43;4.20;;;2.70;;
4585;SDS011;2305;50.118;8.952;2024-01-15T15:26:14;6.80;;;2.80;;
4585;SDS011;2305;50.118;8.952;2024-01-15T15:28:42;4.87;;;2.77;;